Tiempo atmosférico en la estación meteorológica de Nerja, Málaga (169 m.)



Fecha
DESCASC
Temp. máxima en grados centígrados (hora)
DESCASC
Temp. mínima en grados centígrados (hora)
DESCASC
Temp. media en grados centígrados
DESCASC
Racha de viento máxima en m/sg (hora)
DESCASC
Velocidad máxima media en intervalos de 10 minutos(hora)
DESCASC
Precipitaciones diarias en mm
DESCASC
Precipitaciones de 00:00 a 06:00 en mm
DESCASC
Precipitaciones de 06:00 a 12:00 en mm
DESCASC
Precipitaciones de 12:00 a 18:00 en mm
DESCASC
Precipitaciones de 18:00 a 24:00 en mm
DESCASC
16-06-2019 24.1 (17:40) 15.7 (04:50) 19.9 4.72 (13:50) 2.22 (17:20) 0 0 0 0 0
15-06-2019 24.2 (13:00) 16.3 (03:40) 20.3 5.28 (16:10) 3.06 (06:40) 0 0 0 0 0
14-06-2019 23.1 (17:00) 17.6 (08:20) 20.4 10.83 (16:00) 5 (15:30) 0 0 0 0 0
13-06-2019 23.2 (14:50) 16.3 (00:00) 19.8 6.11 (12:10) 3.33 (12:00) 0 0 0 0 0
12-06-2019 23.5 (00:00) 17.2 (00:00) 20.4 10 (02:20) 3.89 (02:00) 0 0 0 0 0
11-06-2019 27.4 (16:00) 19.4 (00:00) 23.4 9.72 (15:50) 4.72 (16:10) 0 0 0 0 0
10-06-2019 26 (13:30) 19.3 (00:00) 22.6 9.17 (04:40) 5.83 (06:20) 0 0 0 0 0
09-06-2019 25.7 (19:10) 19 (00:00) 22.4 8.61 (16:20) 4.44 (14:30) 0 0 0 0 0
08-06-2019 24.7 (17:10) 16.7 (00:00) 20.7 8.89 (18:10) 3.89 (18:40) 0 0 0 0 0
07-06-2019 25.9 (12:40) 16.1 (00:00) 21 8.33 (16:30) 4.44 (16:30) 0 0 0 0 0
06-06-2019 24.9 (18:20) 17.7 (00:00) 21.3 5.83 (18:40) 4.17 (22:50) 0 0 0 0 0
05-06-2019 27.8 (14:00) 18.8 (00:00) 23.3 12.5 (14:50) 5.28 (12:30) 0 0 0 0 0
04-06-2019 27.9 (16:30) 16.4 (00:00) 22.1 5 (13:30) 2.78 (13:40) 0 0 0 0 0
03-06-2019 24.4 (18:00) 17.1 (00:00) 20.8 4.72 (13:20) 2.5 (13:50) 0 0 0 0 0
02-06-2019 25 (13:40) 16.7 (00:00) 20.9 4.44 (13:50) 2.78 (06:50) 0 0 0 0 0
01-06-2019 24.9 (14:00) 15.8 (00:00) 20.3 6.67 (18:20) 2.78 (13:10) 0 0 0 0 0
31-05-2019 23.8 (16:50) 15.7 (00:00) 19.7 8.06 (13:50) 3.33 (15:10) 0 0 0 0 0
30-05-2019 23.4 (13:40) 15.8 (00:00) 19.6 11.39 (15:20) 5.56 (15:20) 0 0 0 0 0
29-05-2019 23.9 (14:10) 17.3 (00:00) 20.6 8.06 (17:00) 3.33 (07:30) 0 0 0 0 0
28-05-2019 24.6 (14:10) 17.2 (00:00) 20.9 6.11 (15:00) 2.78 (15:00) 0 0 0 0 0
27-05-2019 25.8 (16:50) 16.9 (00:00) 21.3 4.72 (15:50) 2.78 (04:30) 0 0 0 0 0
26-05-2019 23.5 (14:30) 15.4 (00:00) 19.4 5 (13:20) 3.06 (23:40) 0 0 0 0 0
25-05-2019 23.4 (15:20) 17.3 (00:00) 20.3 5.56 (00:10) 2.78 (14:40) 0 0 0 0 0
24-05-2019 25.5 (15:10) 19.1 (00:00) 22.3 9.72 (21:50) 4.17 (21:50) 0 0 0 0 0
23-05-2019 26.2 (13:10) 17.2 (00:00) 21.7 5 (14:30) 3.06 (04:30) 0 0 0 0 0
22-05-2019 22.6 (15:10) 15.8 (00:00) 19.2 5.28 (15:20) 2.5 (06:30) 0 0 0 0 0

Gráficas

Temp. máximas Temp. mínimas Temp. medias Precipitaciones Rachas de viento máximas Velocidades máximas media en intervalos de 10 minutos

Datos horarios

Fecha y hora oficial Temperatura (ºC) Velocidad del viento (km/h) Dirección del viento Racha (km/h) Dirección de racha Precipitación (mm) Presión (hPa) Tendencia (hPa) Humedad (%)
2019-06-20 23:00:00 -- -- -- -- -- -- -- -- --
2019-06-20 22:00:00 -- -- -- -- -- -- -- -- --
2019-06-20 21:00:00 25.3 4 Este 23 Sudoeste 0 -- -- 53
2019-06-20 20:00:00 27.4 9 Sudoeste 29 Oeste 0 -- -- 44
2019-06-20 19:00:00 27.5 14 Sudoeste 32 Sudoeste 0 -- -- 43
2019-06-20 18:00:00 27.9 15 Sudoeste 33 Sudoeste 0 -- -- 43
2019-06-20 17:00:00 28.2 15 Sudoeste 33 Sudoeste 0 -- -- 44
2019-06-20 16:00:00 28.1 15 Sudoeste 32 Sudoeste 0 -- -- 44
2019-06-20 15:00:00 27.6 16 Sudoeste 32 Sudoeste 0 -- -- 46
2019-06-20 14:00:00 25.7 12 Sudoeste 23 Sudoeste 0 -- -- 57
2019-06-20 13:00:00 23.5 9 Sudoeste 17 Sudoeste 0 -- -- 66
2019-06-20 12:00:00 22.5 8 Sudoeste 14 Sudoeste 0 -- -- 70
2019-06-20 11:00:00 22.1 5 Sudeste 13 Sudoeste 0 -- -- 72
2019-06-20 10:00:00 21.6 5 Sur 10 Este 0 -- -- 74
2019-06-20 09:00:00 20.8 4 Sur 7 Noroeste 0 -- -- 76
2019-06-20 08:00:00 19.5 2 Oeste 9 Norte 0 -- -- 60
2019-06-20 07:00:00 19.8 4 Nordeste 10 Norte 0 -- -- 52
2019-06-20 06:00:00 18.9 2 Sudeste 17 Este 0 -- -- 71
2019-06-20 05:00:00 20.7 3 Sudeste 13 Este 0 -- -- 59
2019-06-20 04:00:00 21.2 0 Calma 6 Nordeste 0 -- -- 50
2019-06-20 03:00:00 22 5 Nordeste 8 Nordeste 0 -- -- 47
2019-06-20 02:00:00 21.8 3 Oeste 10 Norte 0 -- -- 49
2019-06-20 01:00:00 22.4 8 Norte 10 Norte 0 -- -- 50
2019-06-20 00:00:00 21.9 0 Calma 8 Este 0 -- -- 55
2019-06-19 23:00:00 22.6 6 Nordeste 9 Nordeste 0 -- -- 59
2019-06-19 22:00:00 24.6 3 Nordeste 6 Oeste 0 -- -- 52
2019-06-19 21:00:00 28.2 3 Oeste 10 Sudoeste 0 -- -- 45
2019-06-19 20:00:00 27.8 5 Sur 16 Sudoeste 0 -- -- 50
2019-06-19 19:00:00 28.1 9 Sudoeste 18 Sur 0 -- -- 47
2019-06-19 18:00:00 27.7 8 Sudoeste 22 Sudoeste 0 -- -- 47
2019-06-19 17:00:00 28.2 12 Sur 23 Sur 0 -- -- 48
2019-06-19 16:00:00 27 8 Sudeste 19 Sur 0 -- -- 51
2019-06-19 15:00:00 26.5 8 Sur 15 Oeste 0 -- -- 53
2019-06-19 14:00:00 25.3 7 Sur 17 Sur 0 -- -- 58
2019-06-19 13:00:00 25.6 6 Sur 13 Sudeste 0 -- -- 51
2019-06-19 12:00:00 25.5 6 Sudeste 10 Este 0 -- -- 53
2019-06-19 11:00:00 23 5 Sur 12 Sudeste 0 -- -- 68
2019-06-19 10:00:00 21.7 5 Sudeste 10 Este 0 -- -- 75
2019-06-19 09:00:00 20.3 0 Calma 7 Sudeste 0 -- -- 80
2019-06-19 08:00:00 18.3 4 Sudeste 9 Este 0 -- -- 65
2019-06-19 07:00:00 18.3 4 Este 12 Este 0 -- -- 70
2019-06-19 06:00:00 19.1 6 Nordeste 11 Este 0 -- -- 57
2019-06-19 05:00:00 20.1 3 Norte 9 Norte 0 -- -- 45
2019-06-19 04:00:00 19.4 0 Calma 9 Este 0 -- -- 46
2019-06-19 03:00:00 19.4 3 Nordeste 8 Este 0 -- -- 50
2019-06-19 02:00:00 19.5 0 Calma 8 Noroeste 0 -- -- 47
2019-06-19 01:00:00 21.7 6 Norte 10 Norte 0 -- -- 37
2019-06-19 00:00:00 20.8 0 Calma 5 Nordeste 0 -- -- 42
2019-06-18 23:00:00 22.8 2 Sudeste 12 Noroeste 0 -- -- 40
2019-06-18 22:00:00 23.8 5 Noroeste 12 Noroeste 0 -- -- 34
2019-06-18 21:00:00 24.5 3 Oeste 10 Oeste 0 -- -- 46
2019-06-18 20:00:00 24.2 4 Sur 10 Sudoeste 0 -- -- 61
2019-06-18 19:00:00 24.7 7 Sur 14 Sudoeste 0 -- -- 50
2019-06-18 18:00:00 24.7 7 Sur 14 Sudoeste 0 -- -- 52
2019-06-18 17:00:00 24.4 8 Sudoeste 16 Sudoeste 0 -- -- 53
2019-06-18 16:00:00 24.3 8 Sur 15 Sudeste 0 -- -- 52
2019-06-18 15:00:00 23.9 6 Sur 17 Sur 0 -- -- 71
2019-06-18 14:00:00 24.5 7 Sur 15 Sur 0 -- -- 60
2019-06-18 13:00:00 23.6 7 Sur 15 Sudoeste 0 -- -- 56
2019-06-18 12:00:00 22.4 7 Sudeste 13 Sur 0 -- -- 66
2019-06-18 11:00:00 20.5 6 Sur 12 Sur 0 -- -- 79
2019-06-18 10:00:00 19.5 4 Sur 15 Este 0 -- -- 83
2019-06-18 09:00:00 20.3 8 Este 12 Este 0 -- -- 58
2019-06-18 08:00:00 18.6 0 Calma 8 Norte 0 -- -- 51
2019-06-18 07:00:00 19.6 4 Norte 11 Nordeste 0 -- -- 44
2019-06-18 06:00:00 19.8 6 Norte 12 Norte 0 -- -- 46
2019-06-18 05:00:00 19.6 7 Norte 12 Norte 0 -- -- 49
2019-06-18 04:00:00 19.5 9 Norte 15 Norte 0 -- -- 56
2019-06-18 03:00:00 19.3 6 Norte 11 Norte 0 -- -- 62
2019-06-18 02:00:00 19.4 0 Calma 8 Norte 0 -- -- 67
2019-06-18 01:00:00 19.2 7 Norte 9 Norte 0 -- -- 65
2019-06-18 00:00:00 19 0 Calma 4 Norte 0 -- -- 75
2019-06-17 23:00:00 18.9 3 Nordeste 5 Norte 0 -- -- 75
2019-06-17 22:00:00 20 0 Calma 4 Sudoeste 0 -- -- 73
2019-06-17 21:00:00 21.8 0 Calma 7 Sudoeste 0 -- -- 72
2019-06-17 20:00:00 21.9 5 Sur 10 Sur 0 -- -- 67
2019-06-17 19:00:00 23.2 5 Sur 14 Sur 0 -- -- 68
2019-06-17 18:00:00 23.2 6 Sur 13 Sur 0 -- -- 72
2019-06-17 17:00:00 23.6 6 Sur 15 Sur 0 -- -- 69
2019-06-17 16:00:00 23.2 8 Sur 14 Sur 0 -- -- 71
2019-06-17 15:00:00 23.1 8 Sudoeste 15 Sur 0 -- -- 72
2019-06-17 14:00:00 22.9 7 Sur 14 Sudeste 0 -- -- 72
2019-06-17 13:00:00 22.7 7 Sudeste 15 Sur 0 -- -- 70
2019-06-17 12:00:00 21.4 6 Sur 15 Sur 0 -- -- 74
2019-06-17 11:00:00 21 6 Sudoeste 13 Sudoeste 0 -- -- 72
2019-06-17 10:00:00 20.4 4 Sur 8 Sur 0 -- -- 73
2019-06-17 09:00:00 19.4 4 Sudeste 8 Norte 0 -- -- 70
2019-06-17 08:00:00 17 3 Norte 10 Norte 0 -- -- 71
2019-06-17 07:00:00 16.5 6 Norte 9 Norte 0 -- -- 69
2019-06-17 06:00:00 16.6 3 Norte 9 Norte 0 -- -- 70
2019-06-17 05:00:00 16.5 6 Norte 10 Norte 0 -- -- 71
2019-06-17 04:00:00 17.1 6 Norte 9 Norte 0 -- -- 71
2019-06-17 03:00:00 17.3 8 Norte 11 Norte 0 -- -- 69
2019-06-17 02:00:00 17.9 0 Calma 6 Noroeste 0 -- -- 70
2019-06-17 01:00:00 18.3 0 Calma 6 Norte 0 -- -- 68
2019-06-17 00:00:00 18.7 2 Norte 7 Norte 0 -- -- 64
2019-06-16 23:00:00 19 3 Norte 5 Norte 0 -- -- 65
2019-06-16 22:00:00 20 0 Calma 4 Sur 0 -- -- 63
2019-06-16 21:00:00 22.2 0 Calma 8 Sudoeste 0 -- -- 57
2019-06-16 20:00:00 23.1 4 Sur 11 Sudoeste 0 -- -- 57
2019-06-16 19:00:00 23.3 6 Sur 14 Sur 0 -- -- 60
2019-06-16 18:00:00 23.4 6 Sur 13 Sur 0 -- -- 59
2019-06-16 17:00:00 23 6 Sur 16 Sur 0 -- -- 66
2019-06-16 16:00:00 23.7 6 Sur 13 Sur 0 -- -- 64
2019-06-16 15:00:00 22 7 Sur 15 Sur 0 -- -- 69
2019-06-16 14:00:00 21.5 6 Sudeste 17 Sudeste 0 -- -- 69
2019-06-16 13:00:00 21.6 6 Sur 12 Sur 0 -- -- 66
2019-06-16 12:00:00 22 5 Sudeste 12 Sur 0 -- -- 62
2019-06-16 11:00:00 21.7 6 Sur 10 Sur 0 -- -- 57
2019-06-16 10:00:00 20.4 3 Sudoeste 6 Oeste 0 -- -- 63
2019-06-16 09:00:00 18.9 3 Sur 9 Oeste 0 -- -- 69
2019-06-16 08:00:00 17.2 0 Calma 11 Noroeste 0 -- -- 62
2019-06-16 07:00:00 16.7 0 Calma 9 Norte 0 -- -- 56
2019-06-16 06:00:00 16.4 4 Norte 8 Norte 0 -- -- 63
2019-06-16 05:00:00 15.7 0 Calma 8 Oeste 0 -- -- 74
2019-06-16 04:00:00 15.9 3 Noroeste 9 Oeste 0 -- -- 64
2019-06-16 03:00:00 16.5 3 Norte 8 Noroeste 0 -- -- 76
2019-06-16 02:00:00 16.5 2 Sudeste 8 Nordeste 0 -- -- 74
2019-06-16 01:00:00 17.3 0 Calma 5 Norte 0 -- -- 65
2019-06-16 00:00:00 17.6 0 Calma 4 Nordeste 0 -- -- 64
2019-06-15 23:00:00 19.1 0 Calma 8 Norte 0 -- -- 59
2019-06-15 22:00:00 20.8 0 Calma 4 Norte 0 -- -- 56
2019-06-15 21:00:00 22.8 0 Calma 7 Sudoeste 0 -- -- 55
2019-06-15 20:00:00 22.5 4 Sur 9 Sur 0 -- -- 56
2019-06-15 19:00:00 23.8 7 Sur 13 Sudeste 0 -- -- 47
2019-06-15 18:00:00 23.2 5 Sur 17 Sudoeste 0 -- -- 54
2019-06-15 17:00:00 23.8 9 Sudoeste 19 Sudeste 0 -- -- 43
2019-06-15 16:00:00 23.8 9 Sudoeste 15 Sur 0 -- -- 46
2019-06-15 15:00:00 22.4 6 Sudeste 17 Sudeste 0 -- -- 58
2019-06-15 14:00:00 23.1 6 Sur 14 Sur 0 -- -- 57
2019-06-15 13:00:00 24.2 8 Sur 17 Sur 0 -- -- 49
2019-06-15 12:00:00 23.8 6 Sur 10 Sur 0 -- -- 42
2019-06-15 11:00:00 22.1 4 Sudoeste 10 Sur 0 -- -- 46
2019-06-15 10:00:00 21 3 Sudoeste 8 Sudeste 0 -- -- 47
2019-06-15 09:00:00 19.2 0 Calma 6 Noroeste 0 -- -- 54
2019-06-15 08:00:00 16.5 3 Noroeste 11 Norte 0 -- -- 52
2019-06-15 07:00:00 17.3 4 Norte 14 Norte 0 -- -- 50
2019-06-15 06:00:00 17.5 6 Nordeste 12 Nordeste 0 -- -- 50
2019-06-15 05:00:00 16.9 0 Calma 9 Norte 0 -- -- 55
2019-06-15 04:00:00 16.7 3 Sudeste 8 Norte 0 -- -- 60
2019-06-15 03:00:00 17.1 2 Este 8 Nordeste 0 -- -- 58
2019-06-15 02:00:00 16.8 2 Norte 8 Noroeste 0 -- -- 58
2019-06-15 01:00:00 16.6 3 Noroeste 6 Noroeste 0 -- -- 68
2019-06-15 00:00:00 17.7 0 Calma 5 Norte 0 -- -- 63
2019-06-14 23:00:00 17.6 4 Nordeste 10 Este 0 -- -- 68
2019-06-14 22:00:00 19.1 3 Este 8 Este 0 -- -- 65
2019-06-14 21:00:00 20.6 5 Oeste 18 Sur 0 -- -- 58
2019-06-14 20:00:00 22.2 8 Sudoeste 26 Oeste 0 -- -- 46
2019-06-14 19:00:00 22.4 14 Oeste 33 Oeste 0 -- -- 47
2019-06-14 18:00:00 23.1 12 Oeste 35 Sudoeste 0 -- -- 46
2019-06-14 17:00:00 23.1 13 Sudoeste 35 Sudoeste 0 -- -- 49
2019-06-14 16:00:00 22 17 Sudoeste 39 Sudoeste 0 -- -- 58
2019-06-14 15:00:00 21.2 17 Sudoeste 33 Sudoeste 0 -- -- 60
2019-06-14 14:00:00 21.7 15 Sur 27 Sudoeste 0 -- -- 59
2019-06-14 13:00:00 20.4 17 Sudoeste 29 Sur 0 -- -- 61
2019-06-14 12:00:00 20.7 13 Sudoeste 28 Sudoeste 0 -- -- 61
2019-06-14 11:00:00 20.2 15 Sudoeste 28 Sudoeste 0 -- -- 58
2019-06-14 10:00:00 19.2 11 Sudoeste 29 Sudoeste 0 -- -- 66
2019-06-14 09:00:00 18.4 9 Sudoeste 23 Sudoeste 0 -- -- 72
2019-06-14 08:00:00 18 5 Sudoeste 13 Sudoeste 0 -- -- 89
2019-06-14 07:00:00 18.2 8 Oeste 18 Oeste 0 -- -- 84
2019-06-14 06:00:00 18.4 7 Oeste 15 Oeste 0 -- -- 86
2019-06-14 05:00:00 19.3 4 Sudoeste 13 Sur 0 -- -- 79
2019-06-14 04:00:00 19.5 3 Nordeste 16 Sudoeste 0 -- -- 76
2019-06-14 03:00:00 19.8 5 Sudoeste 12 Sudoeste 0 -- -- 77
2019-06-14 02:00:00 20 7 Noroeste 17 Oeste 0 -- -- 76
2019-06-14 01:00:00 20.2 4 Oeste 12 Sudoeste 0 -- -- 75
2019-06-14 00:00:00 20.3 4 Sur 7 Sudoeste 0 -- -- 74
2019-06-13 23:00:00 20.4 0 Calma 9 Sudoeste 0 -- -- 75
2019-06-13 22:00:00 20.7 3 Sudoeste 6 Sudoeste 0 -- -- 71
2019-06-13 21:00:00 21 3 Sur 8 Sur 0 -- -- 70
2019-06-13 20:00:00 21.1 3 Sudoeste 8 Sur 0 -- -- 71
2019-06-13 19:00:00 21.5 3 Sur 12 Sur 0 -- -- 71
2019-06-13 18:00:00 21.9 6 Sur 12 Sur 0 -- -- 69
2019-06-13 17:00:00 21.3 5 Sur 14 Sudoeste 0 -- -- 72
2019-06-13 16:00:00 21.9 5 Sur 18 Sur 0 -- -- 69
2019-06-13 15:00:00 23.1 8 Sudoeste 20 Sudoeste 0 -- -- 65
2019-06-13 14:00:00 22.4 10 Sur 19 Sudoeste 0 -- -- 67
2019-06-13 13:00:00 22.9 9 Sur 22 Sur 0 -- -- 64
2019-06-13 12:00:00 22 12 Sur 20 Sur 0 -- -- 67
2019-06-13 11:00:00 22 9 Sur 16 Sudoeste 0 -- -- 69
2019-06-13 10:00:00 20.5 6 Sudoeste 13 Sur 0 -- -- 75
2019-06-13 09:00:00 18.9 4 Sudoeste 10 Sudoeste 0 -- -- 78
2019-06-13 08:00:00 17.1 4 Noroeste 9 Noroeste 0 -- -- 85
2019-06-13 07:00:00 16.4 4 Este 8 Nordeste 0 -- -- 88
2019-06-13 06:00:00 16.5 3 Norte 8 Sudeste 0 -- -- 88
2019-06-13 05:00:00 17.2 6 Norte 12 Noroeste 0 -- -- 83
2019-06-13 04:00:00 16.9 3 Nordeste 8 Nordeste 0 -- -- 83
2019-06-13 03:00:00 17.3 2 Norte 10 Norte 0 -- -- 80
2019-06-13 02:00:00 17.3 2 Noroeste 9 Norte 0 -- -- 83
2019-06-13 01:00:00 18 7 Norte 9 Norte 0 -- -- 83
2019-06-13 00:00:00 18.5 0 Calma 9 Este 0 -- -- 82
2019-06-12 23:00:00 19 6 Sudeste 13 Sudeste 0 -- -- 81
2019-06-12 22:00:00 19.1 0 Calma 11 Este 0 -- -- 79
2019-06-12 21:00:00 19.5 5 Sudeste 13 Sudeste 0 -- -- 79
2019-06-12 20:00:00 20.7 5 Sudeste 14 Sudeste 0 -- -- 73
2019-06-12 19:00:00 21.8 6 Sudeste 21 Sudeste 0 -- -- 68
2019-06-12 18:00:00 22.4 8 Sudeste 24 Sudeste 0 -- -- 65
2019-06-12 17:00:00 22.6 10 Sudeste 31 Este 0 -- -- 65
2019-06-12 16:00:00 23 10 Sudeste 28 Este 0 -- -- 62
2019-06-12 15:00:00 22.8 11 Sudeste 26 Sudeste 0 -- -- 60
2019-06-12 14:00:00 23.1 12 Sudeste 29 Sudeste 0 -- -- 57
2019-06-12 13:00:00 22.9 10 Sudeste 31 Sudeste 0 -- -- 57
2019-06-12 12:00:00 22.2 9 Sudeste 22 Sudeste 0 -- -- 56
2019-06-12 11:00:00 21.6 7 Sudeste 18 Sudeste 0 -- -- 61
2019-06-12 10:00:00 19.7 3 Sur 8 Sudeste 0 -- -- 74
2019-06-12 09:00:00 18.6 4 Sudoeste 9 Sudoeste 0 -- -- 80
2019-06-12 08:00:00 18.2 3 Sudoeste 8 Oeste 0 -- -- 81
2019-06-12 07:00:00 17.5 0 Calma 9 Norte 0 -- -- 82
2019-06-12 06:00:00 17.4 5 Norte 8 Norte 0 -- -- 84
2019-06-12 05:00:00 17.7 4 Noroeste 12 Sudeste 0 -- -- 82
2019-06-12 04:00:00 18.4 5 Sudeste 21 Este 0 -- -- 82
2019-06-12 03:00:00 19.2 9 Este 36 Sudeste 0 -- -- 80
2019-06-12 02:00:00 19.4 14 Sudeste 35 Este 0 -- -- 78
2019-06-12 01:00:00 20.2 7 Sudeste 33 Este 0 -- -- 67
2019-06-12 00:00:00 23.5 3 Sur 20 Noroeste 0 -- -- 52
2019-06-11 23:00:00 20.1 8 Nordeste 14 Norte 0 -- -- 58
2019-06-11 22:00:00 21.7 5 Norte 12 Nordeste 0 -- -- 51
2019-06-11 21:00:00 22.6 3 Este 15 Este 0 -- -- 59
2019-06-11 20:00:00 24.8 5 Sudeste 13 Sur 0 -- -- 53
2019-06-11 19:00:00 24.7 8 Sudoeste 26 Sudoeste 0 -- -- 51
2019-06-11 18:00:00 26.7 10 Sudoeste 27 Sudoeste 0 -- -- 45
2019-06-11 17:00:00 27.2 14 Sudoeste 31 Oeste 0 -- -- 41
2019-06-11 16:00:00 27.4 15 Sudoeste 35 Sudoeste 0 -- -- 38
2019-06-11 15:00:00 24.6 10 Sur 21 Sur 0 -- -- 50
2019-06-11 14:00:00 23.2 13 Sur 27 Sudoeste 0 -- -- 53
2019-06-11 13:00:00 23.5 13 Sudoeste 26 Sudoeste 0 -- -- 49
2019-06-11 12:00:00 24.1 12 Sudoeste 24 Sudoeste 0 -- -- 43
2019-06-11 11:00:00 22.1 5 Sudeste 11 Sur 0 -- -- 50
2019-06-11 10:00:00 22.6 4 Sur 14 Sudoeste 0 -- -- 47
2019-06-11 09:00:00 23 2 Este 11 Norte 0 -- -- 40
2019-06-11 08:00:00 19.7 0 Calma 9 Norte 0 -- -- 45
2019-06-11 07:00:00 20.2 7 Norte 13 Norte 0 -- -- 42
2019-06-11 06:00:00 20.3 8 Norte 12 Norte 0 -- -- 41
2019-06-11 05:00:00 20.7 8 Nordeste 12 Norte 0 -- -- 39
2019-06-11 04:00:00 20.5 8 Norte 10 Norte 0 -- -- 38
2019-06-11 03:00:00 21.5 8 Norte 13 Norte 0 -- -- 35
2019-06-11 02:00:00 19.9 3 Norte 5 Norte 0 -- -- 42
2019-06-11 01:00:00 21.6 0 Calma 14 Norte 0 -- -- 35
2019-06-11 00:00:00 20.8 2 Sur 8 Nordeste 0 -- -- 40
2019-06-10 23:00:00 20.4 3 Este 6 Sudeste 0 -- -- 57
2019-06-10 22:00:00 20.7 2 Este 12 Sur 0 -- -- 59
2019-06-10 21:00:00 22.8 7 Este 15 Este 0 -- -- 57
2019-06-10 20:00:00 24.3 5 Sur 17 Sudoeste 0 -- -- 51
2019-06-10 19:00:00 25 8 Sudoeste 21 Sudoeste 0 -- -- 51
2019-06-10 18:00:00 25 11 Sudoeste 23 Sur 0 -- -- 51
2019-06-10 17:00:00 23.7 6 Sudeste 21 Sudoeste 0 -- -- 60
2019-06-10 16:00:00 23.5 8 Sudeste 27 Sudoeste 0 -- -- 60
2019-06-10 15:00:00 25 14 Sudoeste 25 Sudoeste 0 -- -- 51
2019-06-10 14:00:00 24.8 13 Sur 29 Sudoeste 0 -- -- 51
2019-06-10 13:00:00 25.5 11 Sudoeste 24 Sudoeste 0 -- -- 46
2019-06-10 12:00:00 23.6 8 Sur 17 Sur 0 -- -- 56
2019-06-10 11:00:00 25.2 6 Sudeste 16 Sudeste 0 -- -- 49
2019-06-10 10:00:00 24.8 4 Sur 8 Sur 0 -- -- 39
2019-06-10 09:00:00 23.6 0 Calma 14 Norte 0 -- -- 38
2019-06-10 08:00:00 22 11 Norte 22 Norte 0 -- -- 38
2019-06-10 07:00:00 22 9 Norte 31 Noroeste 0 -- -- 38
2019-06-10 06:00:00 23.1 18 Norte 31 Noroeste 0 -- -- 37
2019-06-10 05:00:00 23.3 13 Noroeste 33 Norte 0 -- -- 35
2019-06-10 04:00:00 23.2 12 Norte 24 Noroeste 0 -- -- 36
2019-06-10 03:00:00 20.3 4 Nordeste 14 Norte 0 -- -- 40
2019-06-10 02:00:00 20.4 8 Norte 16 Norte 0 -- -- 40
2019-06-10 01:00:00 22.5 9 Noroeste 18 Noroeste 0 -- -- 35
2019-06-10 00:00:00 19.3 4 Noroeste 7 Oeste 0 -- -- 60
2019-06-09 23:00:00 20.1 0 Calma 6 Sudoeste 0 -- -- 64
2019-06-09 22:00:00 22.1 5 Norte 7 Nordeste 0 -- -- 59
2019-06-09 21:00:00 24.2 0 Calma 12 Sudoeste 0 -- -- 54
2019-06-09 20:00:00 24.6 9 Sudoeste 17 Sudoeste 0 -- -- 52
2019-06-09 19:00:00 25.5 10 Sudoeste 24 Sudoeste 0 -- -- 48
2019-06-09 18:00:00 25.4 13 Sudoeste 26 Sudoeste 0 -- -- 52
2019-06-09 17:00:00 24.4 14 Sur 31 Sur 0 -- -- 59
2019-06-09 16:00:00 24.1 15 Sudoeste 29 Sur 0 -- -- 62
2019-06-09 15:00:00 22.7 16 Sur 28 Sudoeste 0 -- -- 74
2019-06-09 14:00:00 21.6 13 Sur 22 Sur 0 -- -- 78
2019-06-09 13:00:00 21.2 10 Sudoeste 22 Sudoeste 0 -- -- 82
2019-06-09 12:00:00 21 12 Sudoeste 21 Sur 0 -- -- 81
2019-06-09 11:00:00 21 8 Sudoeste 16 Sudoeste 0 -- -- 80
2019-06-09 10:00:00 20.3 8 Sur 16 Sudoeste 0 -- -- 83
2019-06-09 09:00:00 20 7 Sudoeste 14 Sudoeste 0 -- -- 84
2019-06-09 08:00:00 19.5 3 Sudoeste 5 Sudoeste 0 -- -- 84
2019-06-09 07:00:00 19.2 0 Calma 5 Noroeste 0 -- -- 87
2019-06-09 06:00:00 19.1 4 Oeste 6 Oeste 0 -- -- 91
2019-06-09 05:00:00 19.5 0 Calma 4 Sur 0 -- -- 87
2019-06-09 04:00:00 19.4 2 Sur 5 Oeste 0 -- -- 88
2019-06-09 03:00:00 19.7 3 Sur 7 Sudeste 0 -- -- 87
2019-06-09 02:00:00 20 2 Sur 9 Sudeste 0 -- -- 85
2019-06-09 01:00:00 20.2 0 Calma 8 Sudeste 0 -- -- 83
2019-06-09 00:00:00 20.5 3 Sur 8 Este 0 -- -- 81
2019-06-08 23:00:00 20.6 3 Sudeste 13 Sudeste 0 -- -- 79
2019-06-08 22:00:00 20.7 5 Sudeste 14 Sudeste 0 -- -- 79
2019-06-08 21:00:00 21.3 4 Sudeste 17 Sudeste 0 -- -- 77
2019-06-08 20:00:00 22.6 6 Sudeste 28 Sudeste 0 -- -- 70
2019-06-08 19:00:00 23.4 13 Sudeste 32 Sudeste 0 -- -- 67
2019-06-08 18:00:00 24 10 Sudeste 28 Sudeste 0 -- -- 65
2019-06-08 17:00:00 24.6 9 Sudeste 24 Sudeste 0 -- -- 63
2019-06-08 16:00:00 23.9 10 Sudeste 29 Este 0 -- -- 65
2019-06-08 15:00:00 23.2 9 Sudeste 20 Sudeste 0 -- -- 72
2019-06-08 14:00:00 22.5 8 Sudeste 23 Sudeste 0 -- -- 73
2019-06-08 13:00:00 22.5 10 Sudeste 28 Sudeste 0 -- -- 71
2019-06-08 12:00:00 21.8 10 Sudeste 22 Sudeste 0 -- -- 72
2019-06-08 11:00:00 21.8 9 Sudeste 23 Sudeste 0 -- -- 66
2019-06-08 10:00:00 21.1 5 Sur 12 Sudeste 0 -- -- 71
2019-06-08 09:00:00 19.8 4 Oeste 8 Sur 0 -- -- 73
2019-06-08 08:00:00 17.6 3 Noroeste 6 Noroeste 0 -- -- 77
2019-06-08 07:00:00 17 3 Noroeste 12 Oeste 0 -- -- 82
2019-06-08 06:00:00 16.7 4 Oeste 12 Oeste 0 -- -- 83
2019-06-08 05:00:00 16.7 4 Oeste 10 Oeste 0 -- -- 82
2019-06-08 04:00:00 17.2 4 Noroeste 10 Noroeste 0 -- -- 76
2019-06-08 03:00:00 17 2 Norte 6 Sudoeste 0 -- -- 77
2019-06-08 02:00:00 17.8 0 Calma 12 Este 0 -- -- 73
2019-06-08 01:00:00 18.9 0 Calma 4 Sudeste 0 -- -- 64
2019-06-08 00:00:00 19.9 2 Norte 6 Norte 0 -- -- 61
2019-06-07 23:00:00 21.3 7 Norte 12 Norte 0 -- -- 58
2019-06-07 22:00:00 20.7 3 Nordeste 8 Norte 0 -- -- 59
2019-06-07 21:00:00 22.9 0 Calma 13 Sur 0 -- -- 55
2019-06-07 20:00:00 23.7 9 Sudoeste 25 Sudoeste 0 -- -- 52
2019-06-07 19:00:00 24.6 10 Sudoeste 24 Sudoeste 0 -- -- 50
2019-06-07 18:00:00 23 12 Sudoeste 23 Sudoeste 0 -- -- 58
2019-06-07 17:00:00 24.2 13 Sudoeste 30 Sur 0 -- -- 55
2019-06-07 16:00:00 24 14 Sudoeste 24 Sur 0 -- -- 58
2019-06-07 15:00:00 23.9 10 Sudoeste 22 Sudoeste 0 -- -- 59
2019-06-07 14:00:00 23.5 9 Sudoeste 23 Sur 0 -- -- 60
2019-06-07 13:00:00 25 11 Sur 21 Sur 0 -- -- 53
2019-06-07 12:00:00 24.9 6 Sudeste 14 Sudeste 0 -- -- 51
2019-06-07 11:00:00 23.7 7 Sur 12 Sudeste 0 -- -- 42
2019-06-07 10:00:00 22.8 4 Sudeste 10 Sudeste 0 -- -- 39
2019-06-07 09:00:00 20.9 5 Sudeste 12 Este 0 -- -- 41
2019-06-07 08:00:00 17.9 2 Nordeste 9 Norte 0 -- -- 39
2019-06-07 07:00:00 16.9 4 Noroeste 11 Norte 0 -- -- 40
2019-06-07 06:00:00 16.5 2 Sudoeste 9 Norte 0 -- -- 42
2019-06-07 05:00:00 16.2 3 Noroeste 8 Norte 0 -- -- 48
2019-06-07 04:00:00 16.9 4 Noroeste 12 Norte 0 -- -- 49
2019-06-07 03:00:00 16.2 2 Noroeste 12 Nordeste 0 -- -- 57
2019-06-07 02:00:00 16.9 7 Nordeste 13 Este 0 -- -- 65
2019-06-07 01:00:00 17.8 4 Nordeste 11 Este 0 -- -- 52
2019-06-07 00:00:00 19.8 3 Nordeste 18 Norte 0 -- -- 40
2019-06-06 23:00:00 22.6 14 Norte 21 Norte 0 -- -- 29
2019-06-06 22:00:00 21.2 5 Noroeste 10 Oeste 0 -- -- 34
2019-06-06 21:00:00 23.5 4 Oeste 15 Sudoeste 0 -- -- 34
2019-06-06 20:00:00 24.4 9 Sudoeste 17 Sudoeste 0 -- -- 36
2019-06-06 19:00:00 24.5 9 Sudoeste 21 Sudoeste 0 -- -- 37
2019-06-06 18:00:00 24.6 9 Sur 17 Sur 0 -- -- 38
2019-06-06 17:00:00 24.2 9 Sur 16 Sudoeste 0 -- -- 36
2019-06-06 16:00:00 23.9 8 Sudoeste 18 Sudoeste 0 -- -- 41
2019-06-06 15:00:00 22.2 10 Sur 18 Sur 0 -- -- 56
2019-06-06 14:00:00 23.2 8 Sur 15 Sur 0 -- -- 56
2019-06-06 13:00:00 24.1 7 Sur 17 Sudeste 0 -- -- 44
2019-06-06 12:00:00 24 6 Sur 15 Sur 0 -- -- 36
2019-06-06 11:00:00 23.1 5 Sur 9 Sur 0 -- -- 36
2019-06-06 10:00:00 21.6 5 Sur 11 Sudeste 0 -- -- 43
2019-06-06 09:00:00 20.6 2 Sur 9 Norte 0 -- -- 39
2019-06-06 08:00:00 18 5 Norte 8 Norte 0 -- -- 39
2019-06-06 07:00:00 17.9 4 Norte 11 Norte 0 -- -- 38
2019-06-06 06:00:00 17.9 2 Norte 11 Norte 0 -- -- 37
2019-06-06 05:00:00 19.6 7 Norte 13 Norte 0 -- -- 34
2019-06-06 04:00:00 19.3 6 Norte 10 Norte 0 -- -- 34
2019-06-06 03:00:00 20.3 6 Norte 13 Norte 0 -- -- 33
2019-06-06 02:00:00 19.6 6 Norte 11 Norte 0 -- -- 35
2019-06-06 01:00:00 20 6 Norte 9 Norte 0 -- -- 35
2019-06-06 00:00:00 20.4 4 Nordeste 14 Noroeste 0 -- -- 33
2019-06-05 23:00:00 19.4 7 Norte 14 Norte 0 -- -- 42
2019-06-05 22:00:00 20.2 6 Este 13 Este 0 -- -- 65
2019-06-05 21:00:00 22 7 Este 14 Este 0 -- -- 57
2019-06-05 20:00:00 23 4 Sur 13 Sudoeste 0 -- -- 51
2019-06-05 19:00:00 23.3 6 Nordeste 18 Este 0 -- -- 52
2019-06-05 18:00:00 23.4 8 Sudeste 24 Sudoeste 0 -- -- 52
2019-06-05 17:00:00 24.2 13 Sudoeste 30 Sudoeste 0 -- -- 46
2019-06-05 16:00:00 25.2 12 Sudoeste 39 Sur 0 -- -- 40
2019-06-05 15:00:00 24.2 16 Sudoeste 45 Sur 0 -- -- 45
2019-06-05 14:00:00 27.8 8 Oeste 32 Oeste 0 -- -- 20
2019-06-05 13:00:00 25.6 15 Oeste 33 Sudoeste 0 -- -- 20
2019-06-05 12:00:00 24.2 12 Noroeste 37 Oeste 0 -- -- 23
2019-06-05 11:00:00 23.8 17 Oeste 39 Oeste 0 -- -- 25
2019-06-05 10:00:00 22.2 12 Sudoeste 26 Oeste 0 -- -- 36
2019-06-05 09:00:00 21 12 Oeste 31 Noroeste 0 -- -- 46
2019-06-05 08:00:00 20.6 16 Noroeste 31 Noroeste 0 -- -- 48
2019-06-05 07:00:00 21.2 11 Oeste 24 Oeste 0 -- -- 49
2019-06-05 06:00:00 22 10 Oeste 33 Oeste 0 -- -- 50
2019-06-05 05:00:00 20.9 8 Oeste 21 Noroeste 0 -- -- 60
2019-06-05 04:00:00 19.2 7 Oeste 15 Oeste 0 -- -- 74
2019-06-05 03:00:00 19.1 5 Sudoeste 11 Noroeste 0 -- -- 74
2019-06-05 02:00:00 19.4 3 Norte 7 Sudoeste 0 -- -- 78
2019-06-05 01:00:00 20.2 0 Calma 13 Noroeste 0 -- -- 74
2019-06-05 00:00:00 20.5 2 Nordeste 13 Oeste 0 -- -- 74
2019-06-04 23:00:00 20.9 6 Norte 12 Norte 0 -- -- 72
2019-06-04 22:00:00 22.3 0 Calma 9 Sur 0 -- -- 67
2019-06-04 21:00:00 22.9 0 Calma 9 Oeste 0 -- -- 67
2019-06-04 20:00:00 24.4 5 Sudoeste 14 Sudoeste 0 -- -- 61
2019-06-04 19:00:00 26.2 10 Sur 17 Sudoeste 0 -- -- 55
2019-06-04 18:00:00 26.3 9 Sur 14 Sudoeste 0 -- -- 52
2019-06-04 17:00:00 26.7 6 Sudoeste 16 Sudoeste 0 -- -- 40
2019-06-04 16:00:00 26.5 8 Sur 14 Sudoeste 0 -- -- 39
2019-06-04 15:00:00 24.7 6 Sur 17 Sur 0 -- -- 48
2019-06-04 14:00:00 23.9 8 Sudoeste 18 Sur 0 -- -- 54
2019-06-04 13:00:00 22.6 6 Sudoeste 14 Sur 0 -- -- 73
2019-06-04 12:00:00 23.9 5 Sur 12 Sudeste 0 -- -- 59
2019-06-04 11:00:00 22.3 4 Sur 11 Sudeste 0 -- -- 56
2019-06-04 10:00:00 22.1 5 Sur 8 Sudoeste 0 -- -- 50
2019-06-04 09:00:00 19.9 0 Calma 8 Noroeste 0 -- -- 47
2019-06-04 08:00:00 16.5 3 Noroeste 7 Oeste 0 -- -- 55
2019-06-04 07:00:00 17.2 4 Norte 10 Norte 0 -- -- 52
2019-06-04 06:00:00 17.6 3 Norte 10 Norte 0 -- -- 52
2019-06-04 05:00:00 18.3 3 Noroeste 6 Este 0 -- -- 49
2019-06-04 04:00:00 18.5 2 Norte 8 Norte 0 -- -- 48
2019-06-04 03:00:00 18.4 0 Calma 9 Norte 0 -- -- 56
2019-06-04 02:00:00 18.8 5 Norte 9 Norte 0 -- -- 57
2019-06-04 01:00:00 18.6 4 Noroeste 11 Noroeste 0 -- -- 66
2019-06-04 00:00:00 19.4 0 Calma 7 Norte 0 -- -- 66
2019-06-03 23:00:00 19.1 3 Nordeste 6 Norte 0 -- -- 66
2019-06-03 22:00:00 20.1 2 Oeste 6 Noroeste 0 -- -- 69
2019-06-03 21:00:00 22.4 2 Oeste 6 Sur 0 -- -- 63
2019-06-03 20:00:00 23.1 3 Sur 9 Sur 0 -- -- 63
2019-06-03 19:00:00 22.9 6 Sur 14 Sur 0 -- -- 62
2019-06-03 18:00:00 24.4 5 Sur 12 Sudoeste 0 -- -- 48
2019-06-03 17:00:00 23 6 Sur 12 Sur 0 -- -- 72
2019-06-03 16:00:00 22.9 6 Sur 13 Sur 0 -- -- 71
2019-06-03 15:00:00 22.6 6 Sur 15 Sudoeste 0 -- -- 72
2019-06-03 14:00:00 22.1 8 Sur 17 Sur 0 -- -- 75
2019-06-03 13:00:00 22.1 7 Sur 16 Sur 0 -- -- 72
2019-06-03 12:00:00 22.6 7 Sur 14 Sudeste 0 -- -- 59
2019-06-03 11:00:00 22.6 6 Sur 12 Sudeste 0 -- -- 40
2019-06-03 10:00:00 21.9 4 Sur 8 Sudeste 0 -- -- 43
2019-06-03 09:00:00 20.5 2 Sur 8 Norte 0 -- -- 49
2019-06-03 08:00:00 17.6 4 Noroeste 9 Norte 0 -- -- 55
2019-06-03 07:00:00 17.2 3 Norte 8 Norte 0 -- -- 55
2019-06-03 06:00:00 17.4 5 Norte 9 Norte 0 -- -- 54
2019-06-03 05:00:00 17.7 4 Norte 9 Norte 0 -- -- 54
2019-06-03 04:00:00 18.1 4 Norte 12 Norte 0 -- -- 53
2019-06-03 03:00:00 18 3 Noroeste 5 Norte 0 -- -- 54
2019-06-03 02:00:00 18.3 3 Noroeste 5 Noroeste 0 -- -- 55
2019-06-03 01:00:00 18.6 2 Noroeste 8 Norte 0 -- -- 57
2019-06-03 00:00:00 18.7 0 Calma 8 Norte 0 -- -- 59
2019-06-02 23:00:00 19.4 0 Calma 15 Norte 0 -- -- 56
2019-06-02 22:00:00 19.9 7 Norte 13 Norte 0 -- -- 55
2019-06-02 21:00:00 21.6 4 Sudoeste 7 Sur 0 -- -- 56
2019-06-02 20:00:00 22.5 4 Sur 11 Sur 0 -- -- 49
2019-06-02 19:00:00 23.5 5 Sur 15 Sudeste 0 -- -- 48
2019-06-02 18:00:00 23.8 7 Sur 13 Sudeste 0 -- -- 46
2019-06-02 17:00:00 23.9 8 Sur 15 Sur 0 -- -- 43
2019-06-02 16:00:00 24.8 8 Sur 15 Sudoeste 0 -- -- 42
2019-06-02 15:00:00 24.3 6 Sur 15 Sur 0 -- -- 39
2019-06-02 14:00:00 24.2 9 Sur 16 Sur 0 -- -- 47
2019-06-02 13:00:00 24.7 8 Sur 15 Sur 0 -- -- 37
2019-06-02 12:00:00 23.8 6 Sur 15 Sudoeste 0 -- -- 43
2019-06-02 11:00:00 23 6 Sudoeste 13 Sur 0 -- -- 47
2019-06-02 10:00:00 21.7 4 Sur 11 Sudoeste 0 -- -- 51
2019-06-02 09:00:00 20.2 2 Sur 7 Norte 0 -- -- 49
2019-06-02 08:00:00 17.2 5 Norte 14 Norte 0 -- -- 57
2019-06-02 07:00:00 17.2 9 Norte 14 Norte 0 -- -- 56
2019-06-02 06:00:00 17.1 5 Norte 12 Nordeste 0 -- -- 58
2019-06-02 05:00:00 16.7 4 Norte 10 Norte 0 -- -- 60
2019-06-02 04:00:00 17.1 4 Noroeste 12 Norte 0 -- -- 61
2019-06-02 03:00:00 17.2 0 Calma 9 Norte 0 -- -- 64
2019-06-02 02:00:00 17.4 3 Norte 10 Norte 0 -- -- 66
2019-06-02 01:00:00 17.7 7 Norte 10 Norte 0 -- -- 62
2019-06-02 00:00:00 18.2 5 Norte 10 Norte 0 -- -- 60
2019-06-01 23:00:00 18.7 3 Norte 9 Noroeste 0 -- -- 59
2019-06-01 22:00:00 19.8 5 Noroeste 11 Oeste 0 -- -- 57
2019-06-01 21:00:00 21.6 3 Sudeste 13 Sudeste 0 -- -- 55
2019-06-01 20:00:00 22.7 5 Sudeste 15 Sur 0 -- -- 50
2019-06-01 19:00:00 23.3 6 Sudeste 24 Sudeste 0 -- -- 51
2019-06-01 18:00:00 24.4 7 Sudeste 22 Sudeste 0 -- -- 52
2019-06-01 17:00:00 24.7 9 Sur 19 Sudeste 0 -- -- 46
2019-06-01 16:00:00 24.1 6 Sur 15 Sudoeste 0 -- -- 47
2019-06-01 15:00:00 23.5 7 Sudoeste 17 Sur 0 -- -- 47
2019-06-01 14:00:00 24.9 6 Sur 23 Sudeste 0 -- -- 43
2019-06-01 13:00:00 24.4 9 Sudeste 24 Sudeste 0 -- -- 39
2019-06-01 12:00:00 23.5 9 Sudeste 21 Sudeste 0 -- -- 46
2019-06-01 11:00:00 23 5 Sur 13 Sudeste 0 -- -- 49
2019-06-01 10:00:00 21.8 5 Sur 9 Sur 0 -- -- 58
2019-06-01 09:00:00 19.9 4 Oeste 13 Norte 0 -- -- 65
2019-06-01 08:00:00 16.9 9 Norte 14 Norte 0 -- -- 74
2019-06-01 07:00:00 16.1 8 Norte 12 Norte 0 -- -- 78
2019-06-01 06:00:00 16 7 Norte 12 Norte 0 -- -- 83
2019-06-01 05:00:00 16.1 5 Norte 8 Norte 0 -- -- 83
2019-06-01 04:00:00 16.6 4 Noroeste 8 Norte 0 -- -- 82
2019-06-01 03:00:00 17 8 Norte 11 Norte 0 -- -- 79
2019-06-01 02:00:00 17.4 4 Norte 8 Oeste 0 -- -- 78
2019-06-01 01:00:00 17.3 3 Norte 8 Norte 0 -- -- 78
2019-06-01 00:00:00 17.8 5 Norte 9 Norte 0 -- -- 75
2019-05-31 23:00:00 18.1 2 Noroeste 5 Noroeste 0 -- -- 76
2019-05-31 22:00:00 19.2 0 Calma 6 Sur 0 -- -- 71
2019-05-31 21:00:00 20.7 4 Sudoeste 10 Sur 0 -- -- 67
2019-05-31 20:00:00 22 5 Sur 12 Sudoeste 0 -- -- 61
2019-05-31 19:00:00 22.6 5 Sur 15 Sur 0 -- -- 59
2019-05-31 18:00:00 23.4 7 Sur 15 Sur 0 -- -- 55
2019-05-31 17:00:00 23.4 9 Sur 19 Sudeste 0 -- -- 56
2019-05-31 16:00:00 23 10 Sudeste 26 Sudeste 0 -- -- 56
2019-05-31 15:00:00 22.9 11 Sudeste 27 Este 0 -- -- 56
2019-05-31 14:00:00 23.1 10 Sudeste 29 Sudeste 0 -- -- 56
2019-05-31 13:00:00 22.6 11 Sudeste 27 Este 0 -- -- 57
2019-05-31 12:00:00 22.2 8 Sudeste 22 Este 0 -- -- 57
2019-05-31 11:00:00 21.1 5 Sudoeste 12 Sudoeste 0 -- -- 60
2019-05-31 10:00:00 20.4 7 Sur 14 Sur 0 -- -- 64
2019-05-31 09:00:00 19.1 3 Oeste 9 Norte 0 -- -- 67
2019-05-31 08:00:00 16.2 6 Norte 12 Norte 0 -- -- 75
2019-05-31 07:00:00 15.8 8 Norte 12 Norte 0 -- -- 76
2019-05-31 06:00:00 15.9 5 Norte 12 Nordeste 0 -- -- 75
2019-05-31 05:00:00 15.9 6 Norte 11 Norte 0 -- -- 77
2019-05-31 04:00:00 16.2 6 Norte 10 Norte 0 -- -- 79
2019-05-31 03:00:00 16.4 6 Norte 9 Norte 0 -- -- 80
2019-05-31 02:00:00 16.3 4 Norte 10 Norte 0 -- -- 74
2019-05-31 01:00:00 16.8 4 Norte 9 Norte 0 -- -- 76
2019-05-31 00:00:00 17.2 6 Norte 10 Norte 0 -- -- 73
2019-05-30 23:00:00 18 4 Norte 9 Noroeste 0 -- -- 72
2019-05-30 22:00:00 18.8 4 Oeste 19 Sudeste 0 -- -- 70
2019-05-30 21:00:00 20.5 6 Sudeste 19 Sudeste 0 -- -- 63
2019-05-30 20:00:00 22.1 6 Sudeste 26 Este 0 -- -- 54
2019-05-30 19:00:00 22.4 13 Sudeste 30 Sudeste 0 -- -- 53
2019-05-30 18:00:00 22.6 15 Sudeste 36 Sudeste 0 -- -- 48
2019-05-30 17:00:00 23 16 Sudeste 38 Sudeste 0 -- -- 49
2019-05-30 16:00:00 23.3 12 Sudeste 41 Sudeste 0 -- -- 54
2019-05-30 15:00:00 23.3 14 Sudeste 36 Este 0 -- -- 52
2019-05-30 14:00:00 23.4 14 Sudeste 37 Sudeste 0 -- -- 46
2019-05-30 13:00:00 23.1 12 Sudeste 31 Sudeste 0 -- -- 46
2019-05-30 12:00:00 21.7 9 Sudeste 22 Sudeste 0 -- -- 65
2019-05-30 11:00:00 21 10 Sudeste 24 Sudeste 0 -- -- 62
2019-05-30 10:00:00 20 5 Sudeste 12 Sudeste 0 -- -- 65
2019-05-30 09:00:00 18.6 3 Sur 7 Norte 0 -- -- 70
2019-05-30 08:00:00 16.3 4 Norte 11 Norte 0 -- -- 79
2019-05-30 07:00:00 16 2 Noroeste 9 Oeste 0 -- -- 79
2019-05-30 06:00:00 16.3 2 Este 10 Noroeste 0 -- -- 78
2019-05-30 05:00:00 16.2 7 Norte 14 Norte 0 -- -- 79
2019-05-30 04:00:00 16.5 6 Norte 9 Norte 0 -- -- 80
2019-05-30 03:00:00 16.8 2 Nordeste 10 Norte 0 -- -- 77
2019-05-30 02:00:00 17.1 6 Norte 12 Norte 0 -- -- 82
2019-05-30 01:00:00 17.1 6 Norte 10 Norte 0 -- -- 81
2019-05-30 00:00:00 17.3 5 Norte 7 Norte 0 -- -- 78
2019-05-29 23:00:00 18.3 0 Calma 15 Nordeste 0 -- -- 77
2019-05-29 22:00:00 18.9 5 Este 22 Sudeste 0 -- -- 75
2019-05-29 21:00:00 19.7 9 Sudeste 23 Sudeste 0 -- -- 73
2019-05-29 20:00:00 21.6 10 Sudeste 28 Sudeste 0 -- -- 60
2019-05-29 19:00:00 23 9 Sudeste 23 Sudeste 0 -- -- 57
2019-05-29 18:00:00 22.9 9 Sudeste 26 Sudeste 0 -- -- 59
2019-05-29 17:00:00 22.6 10 Sudeste 29 Este 0 -- -- 67
2019-05-29 16:00:00 22.8 10 Sudeste 21 Sudeste 0 -- -- 68
2019-05-29 15:00:00 23.6 7 Sudeste 18 Este 0 -- -- 63
2019-05-29 14:00:00 23.4 9 Sudeste 20 Este 0 -- -- 60
2019-05-29 13:00:00 23.5 9 Sudeste 19 Este 0 -- -- 53
2019-05-29 12:00:00 23.1 8 Sudeste 17 Sur 0 -- -- 65
2019-05-29 11:00:00 22.8 7 Sur 14 Sudoeste 0 -- -- 66
2019-05-29 10:00:00 22.4 4 Sur 9 Sur 0 -- -- 69
2019-05-29 09:00:00 20.7 0 Calma 9 Norte 0 -- -- 72
2019-05-29 08:00:00 19 3 Norte 15 Norte 0 -- -- 77
2019-05-29 07:00:00 17.5 5 Norte 8 Norte 0 -- -- 80
2019-05-29 06:00:00 17.7 2 Noroeste 10 Norte 0 -- -- 79
2019-05-29 05:00:00 17.7 3 Norte 9 Oeste 0 -- -- 80
2019-05-29 04:00:00 17.7 0 Calma 5 Norte 0 -- -- 77
2019-05-29 03:00:00 18.4 0 Calma 6 Norte 0 -- -- 75
2019-05-29 02:00:00 19 4 Nordeste 13 Nordeste 0 -- -- 73
2019-05-29 01:00:00 18.8 5 Norte 9 Noroeste 0 -- -- 74
2019-05-29 00:00:00 19 0 Calma 5 Norte 0 -- -- 75
2019-05-28 23:00:00 19.5 4 Noroeste 7 Noroeste 0 -- -- 75
2019-05-28 22:00:00 20.4 2 Oeste 9 Sudeste 0 -- -- 74
2019-05-28 21:00:00 21.7 5 Sudeste 10 Sudeste 0 -- -- 70
2019-05-28 20:00:00 23 4 Sudeste 12 Sudeste 0 -- -- 64
2019-05-28 19:00:00 23.6 6 Sudeste 14 Sudeste 0 -- -- 61
2019-05-28 18:00:00 24 7 Sudeste 16 Sudeste 0 -- -- 62
2019-05-28 17:00:00 24.2 8 Sudeste 17 Sudeste 0 -- -- 57
2019-05-28 16:00:00 24.1 9 Sudeste 21 Este 0 -- -- 59
2019-05-28 15:00:00 24 10 Sudeste 22 Sudeste 0 -- -- 65
2019-05-28 14:00:00 24.2 8 Sudeste 18 Sudeste 0 -- -- 53
2019-05-28 13:00:00 23.8 8 Sur 17 Sur 0 -- -- 64
2019-05-28 12:00:00 23 8 Sudeste 17 Sur 0 -- -- 68
2019-05-28 11:00:00 22.7 5 Sudeste 11 Sudeste 0 -- -- 65
2019-05-28 10:00:00 22.1 4 Sur 9 Sur 0 -- -- 65
2019-05-28 09:00:00 20.5 2 Sudoeste 6 Nordeste 0 -- -- 65
2019-05-28 08:00:00 18.1 0 Calma 5 Nordeste 0 -- -- 67
2019-05-28 07:00:00 17.9 0 Calma 10 Norte 0 -- -- 68
2019-05-28 06:00:00 17.3 3 Noroeste 8 Noroeste 0 -- -- 76
2019-05-28 05:00:00 17.3 3 Este 4 Sudeste 0 -- -- 72
2019-05-28 04:00:00 17.6 0 Calma -- -- 0 -- -- 75
2019-05-28 03:00:00 17.7 0 Calma 8 Norte 0 -- -- 75
2019-05-28 02:00:00 18 3 Nordeste 8 Nordeste 0 -- -- 71
2019-05-28 01:00:00 18.5 5 Nordeste 11 Norte 0 -- -- 66
2019-05-28 00:00:00 18.7 4 Nordeste 8 Este 0 -- -- 67
2019-05-27 23:00:00 19.3 2 Este 6 Nordeste 0 -- -- 62
2019-05-27 22:00:00 20.3 2 Este 6 Sur 0 -- -- 61
2019-05-27 21:00:00 22.2 2 Sur 6 Sudoeste 0 -- -- 56
2019-05-27 20:00:00 23.3 2 Sudoeste 8 Sudoeste 0 -- -- 51
2019-05-27 19:00:00 24.8 7 Sudoeste 15 Sudoeste 0 -- -- 42
2019-05-27 18:00:00 24.6 8 Sur 17 Oeste 0 -- -- 39
2019-05-27 17:00:00 25.4 8 Sur 17 Sudoeste 0 -- -- 39
2019-05-27 16:00:00 24.8 10 Sudoeste 17 Sur 0 -- -- 39
2019-05-27 15:00:00 23.6 9 Sudoeste 17 Sudoeste 0 -- -- 45
2019-05-27 14:00:00 23.5 10 Sur 15 Sur 0 -- -- 45
2019-05-27 13:00:00 22.5 8 Sudoeste 16 Sudoeste 0 -- -- 46
2019-05-27 12:00:00 22.3 9 Sudoeste 15 Sudoeste 0 -- -- 50
2019-05-27 11:00:00 22.1 7 Sudoeste 12 Sudoeste 0 -- -- 49
2019-05-27 10:00:00 21.2 4 Sur 8 Sudeste 0 -- -- 52
2019-05-27 09:00:00 19.9 0 Calma 7 Sudeste 0 -- -- 54
2019-05-27 08:00:00 17.6 6 Norte 12 Norte 0 -- -- 57
2019-05-27 07:00:00 17.2 6 Norte 14 Norte 0 -- -- 57
2019-05-27 06:00:00 17.3 7 Norte 14 Norte 0 -- -- 58
2019-05-27 05:00:00 17.4 4 Norte 14 Norte 0 -- -- 58
2019-05-27 04:00:00 17.3 8 Norte 12 Norte 0 -- -- 59
2019-05-27 03:00:00 17.3 8 Norte 12 Norte 0 -- -- 62
2019-05-27 02:00:00 17 5 Nordeste 10 Norte 0 -- -- 65
2019-05-27 01:00:00 17 2 Norte 9 Noroeste 0 -- -- 75
2019-05-27 00:00:00 18.1 4 Sur 15 Norte 0 -- -- 70
2019-05-26 23:00:00 17.8 0 Calma 5 Norte 0 -- -- 75
2019-05-26 22:00:00 18.9 0 Calma 5 Oeste 0 -- -- 72
2019-05-26 21:00:00 20.3 0 Calma 7 Sur 0 -- -- 72
2019-05-26 20:00:00 20.7 4 Sudeste 12 Sur 0 -- -- 70
2019-05-26 19:00:00 22 4 Sur 13 Sur 0 -- -- 66
2019-05-26 18:00:00 22.4 5 Sur 15 Sur 0 -- -- 60
2019-05-26 17:00:00 22.7 6 Sur 15 Sur 0 -- -- 52
2019-05-26 16:00:00 23.4 7 Sudeste 16 Sur 0 -- -- 52
2019-05-26 15:00:00 23 8 Sur 16 Sudoeste 0 -- -- 54
2019-05-26 14:00:00 22.6 9 Sur 18 Sur 0 -- -- 50
2019-05-26 13:00:00 22.7 8 Sur 16 Sudoeste 0 -- -- 52
2019-05-26 12:00:00 21.7 7 Sur 15 Sur 0 -- -- 51
2019-05-26 11:00:00 20.7 7 Sudoeste 13 Sur 0 -- -- 50
2019-05-26 10:00:00 20.5 4 Sur 9 Sur 0 -- -- 56
2019-05-26 09:00:00 18.7 3 Sur 9 Norte 0 -- -- 58
2019-05-26 08:00:00 16.1 8 Norte 12 Norte 0 -- -- 63
2019-05-26 07:00:00 15.4 7 Norte 9 Norte 0 -- -- 67
2019-05-26 06:00:00 15.7 2 Norte 10 Norte 0 -- -- 67
2019-05-26 05:00:00 15.9 2 Nordeste 9 Noroeste 0 -- -- 70
2019-05-26 04:00:00 15.9 6 Norte 9 Norte 0 -- -- 68
2019-05-26 03:00:00 16.1 3 Oeste 10 Norte 0 -- -- 66
2019-05-26 02:00:00 16.4 3 Norte 8 Norte 0 -- -- 65
2019-05-26 01:00:00 16.9 4 Norte 9 Norte 0 -- -- 64
2019-05-26 00:00:00 17.3 6 Norte 10 Nordeste 0 -- -- 61
2019-05-25 23:00:00 17.9 6 Norte 11 Norte 0 -- -- 63
2019-05-25 22:00:00 18.5 5 Norte 8 Norte 0 -- -- 66
2019-05-25 21:00:00 19.4 2 Sudeste 9 Sur 0 -- -- 69
2019-05-25 20:00:00 20.8 4 Sur 12 Sur 0 -- -- 58
2019-05-25 19:00:00 21.1 5 Sur 12 Sur 0 -- -- 61
2019-05-25 18:00:00 22.5 5 Sur 15 Sudeste 0 -- -- 59
2019-05-25 17:00:00 22.5 6 Sudeste 17 Sudeste 0 -- -- 57
2019-05-25 16:00:00 22.7 7 Sur 17 Sur 0 -- -- 54
2019-05-25 15:00:00 23 6 Sudeste 19 Sur 0 -- -- 51
2019-05-25 14:00:00 22.4 7 Sudeste 19 Este 0 -- -- 51
2019-05-25 13:00:00 22.3 8 Sudeste 18 Este 0 -- -- 47
2019-05-25 12:00:00 21.3 6 Sur 12 Sudeste 0 -- -- 49
2019-05-25 11:00:00 21.2 5 Sudeste 12 Sudeste 0 -- -- 48
2019-05-25 10:00:00 20.1 5 Sudeste 12 Sudeste 0 -- -- 49
2019-05-25 09:00:00 18.9 3 Sur 6 Sur 0 -- -- 58
2019-05-25 08:00:00 18.3 0 Calma 4 Este 0 -- -- 67
2019-05-25 07:00:00 18.2 2 Sudeste 12 Norte 0 -- -- 71
2019-05-25 06:00:00 18 5 Norte 10 Oeste 0 -- -- 73
2019-05-25 05:00:00 18.2 3 Oeste 7 Oeste 0 -- -- 71
2019-05-25 04:00:00 18.4 2 Sur 8 Sudeste 0 -- -- 74
2019-05-25 03:00:00 18.6 0 Calma 8 Sudeste 0 -- -- 84
2019-05-25 02:00:00 18.7 4 Sudeste 10 Este 0 -- -- 82
2019-05-25 01:00:00 18.8 5 Sudeste 20 Este 0 -- -- 84
2019-05-25 00:00:00 19.6 9 Sudeste 34 Este 0 -- -- 80
2019-05-24 23:00:00 20 12 Nordeste 30 Este 0 -- -- 70
2019-05-24 22:00:00 21.1 14 Nordeste 35 Este 0 -- -- 59
2019-05-24 21:00:00 21.4 7 Este 19 Este 0 -- -- 66
2019-05-24 20:00:00 22.7 6 Este 10 Este 0 -- -- 60
2019-05-24 19:00:00 23.1 5 Sur 12 Sudeste 0 -- -- 57
2019-05-24 18:00:00 23.2 5 Sur 14 Sur 0 -- -- 57
2019-05-24 17:00:00 23.1 7 Sur 18 Sur 0 -- -- 61
2019-05-24 16:00:00 24 9 Sur 24 Sudoeste 0 -- -- 60
2019-05-24 15:00:00 25.2 10 Sur 18 Sur 0 -- -- 46
2019-05-24 14:00:00 23.1 9 Sudoeste 14 Sur 0 -- -- 63
2019-05-24 13:00:00 25.2 7 Sudoeste 15 Sudoeste 0 -- -- 40
2019-05-24 12:00:00 23.7 5 Sur 11 Sur 0 -- -- 45
2019-05-24 11:00:00 21.6 5 Sur 8 Sur 0 -- -- 51
2019-05-24 10:00:00 20.9 3 Este 4 Sur 0 -- -- 40
2019-05-24 09:00:00 20.5 0 Calma 5 Oeste 0 -- -- 42
2019-05-24 08:00:00 19.5 0 Calma 12 Norte 0 -- -- 40
2019-05-24 07:00:00 19.8 7 Norte 12 Norte 0 -- -- 36
2019-05-24 06:00:00 20 4 Norte 10 Norte 0 -- -- 35
2019-05-24 05:00:00 19.9 5 Norte 10 Norte 0 -- -- 36
2019-05-24 04:00:00 19.4 0 Calma 9 Noroeste 0 -- -- 39
2019-05-24 03:00:00 19.5 2 Noroeste 12 Nordeste 0 -- -- 39
2019-05-24 02:00:00 19.4 4 Norte 8 Norte 0 -- -- 41
2019-05-24 01:00:00 19.6 2 Noroeste 5 Noroeste 0 -- -- 41
2019-05-24 00:00:00 19.6 0 Calma 6 Oeste 0 -- -- 42
2019-05-23 23:00:00 20.4 0 Calma 8 Norte 0 -- -- 40
2019-05-23 22:00:00 20.3 3 Norte 6 Norte 0 -- -- 36
2019-05-23 21:00:00 21.7 0 Calma 6 Sur 0 -- -- 45
2019-05-23 20:00:00 23.3 4 Sur 8 Sur 0 -- -- 38
2019-05-23 19:00:00 24.8 4 Sur 10 Sur 0 -- -- 37
2019-05-23 18:00:00 25.4 5 Sur 11 Sur 0 -- -- 32
2019-05-23 17:00:00 25.2 7 Sur 13 Sur 0 -- -- 38
2019-05-23 16:00:00 24.7 6 Sudeste 15 Sudoeste 0 -- -- 37
2019-05-23 15:00:00 25.5 8 Sur 18 Sur 0 -- -- 30
2019-05-23 14:00:00 25.5 8 Sudeste 17 Sudeste 0 -- -- 27
2019-05-23 13:00:00 25.9 7 Sudeste 15 Sudeste 0 -- -- 28
2019-05-23 12:00:00 25.4 6 Sur 12 Sudeste 0 -- -- 30
2019-05-23 11:00:00 24.1 4 Sur 10 Sur 0 -- -- 32
2019-05-23 10:00:00 23 4 Sudoeste 8 Sur 0 -- -- 34
2019-05-23 09:00:00 21.2 2 Sudoeste 11 Norte 0 -- -- 37
2019-05-23 08:00:00 18.3 10 Norte 15 Norte 0 -- -- 46
2019-05-23 07:00:00 18 11 Norte 14 Norte 0 -- -- 48
2019-05-23 06:00:00 17.8 9 Norte 12 Norte 0 -- -- 46
2019-05-23 05:00:00 18 8 Norte 15 Norte 0 -- -- 48
2019-05-23 04:00:00 18.2 9 Norte 12 Norte 0 -- -- 47
2019-05-23 03:00:00 18.3 10 Norte 13 Norte 0 -- -- 45
2019-05-23 02:00:00 17.4 3 Nordeste 8 Norte 0 -- -- 47
2019-05-23 01:00:00 17.3 0 Calma 4 Norte 0 -- -- 55
2019-05-23 00:00:00 17.6 2 Norte 5 Norte 0 -- -- 62
2019-05-22 23:00:00 17.6 3 Noroeste 6 Norte 0 -- -- 57
2019-05-22 22:00:00 18.4 3 Norte 8 Norte 0 -- -- 53
2019-05-22 21:00:00 20.8 0 Calma 8 Sudeste 0 -- -- 46
2019-05-22 20:00:00 21.5 3 Sur 13 Este 0 -- -- 55
2019-05-22 19:00:00 22.5 5 Sur 14 Sur 0 -- -- 54
2019-05-22 18:00:00 22.3 6 Sudeste 18 Sur 0 -- -- 56
2019-05-22 17:00:00 22.3 8 Sudeste 18 Este 0 -- -- 62
2019-05-22 16:00:00 21.9 6 Sudeste 19 Sudeste 0 -- -- 66
2019-05-22 15:00:00 22.4 8 Sudeste 18 Sur 0 -- -- 65
2019-05-22 14:00:00 22.1 8 Sur 17 Sudeste 0 -- -- 67
2019-05-22 13:00:00 21.3 7 Sudeste 15 Sudeste 0 -- -- 69
2019-05-22 12:00:00 20.9 5 Sudeste 16 Sudeste 0 -- -- 68
2019-05-22 11:00:00 20.6 7 Sur 13 Sur 0 -- -- 66
2019-05-22 10:00:00 19.8 3 Sur 7 Sur 0 -- -- 71
2019-05-22 09:00:00 18.8 3 Sur 10 Norte 0 -- -- 73
2019-05-22 08:00:00 16.4 5 Norte 14 Norte 0 -- -- 78
2019-05-22 07:00:00 16.1 9 Norte 14 Norte 0 -- -- 81
2019-05-22 06:00:00 16.1 8 Norte 12 Norte 0 -- -- 81
2019-05-22 05:00:00 17.2 4 Noroeste 9 Oeste 0 -- -- 80
2019-05-22 04:00:00 16.9 0 Calma 6 Norte 0 -- -- 83
2019-05-22 03:00:00 16.1 4 Norte 10 Norte 0 -- -- 81
2019-05-22 02:00:00 16.3 0 Calma 10 Oeste 0 -- -- 81
2019-05-22 01:00:00 16.9 7 Oeste 12 Oeste 0 -- -- 77
2019-05-22 00:00:00 18.1 3 Oeste 6 Noroeste 0 -- -- 67